TimeWET,TemperatureF,Dew PointF,Humidity,Sea Level PressureIn,VisibilityMPH,Wind Direction,Wind SpeedMPH,Gust SpeedMPH,PrecipitationIn,Events,Conditions,WindDirDegrees,DateUTC
12:00 AM,50,47,84,30.25,6,Calm,Calm,,,,Mostly Cloudy,,2013-04-06 00:00:00
12:00 AM,50.0,46.4,87,30.21,6.2,Calm,Calm,-,N/A,,Scattered Clouds,0,2013-04-06 00:00:00
12:30 AM,50.0,46.4,87,30.24,6.2,Calm,Calm,-,N/A,,Scattered Clouds,0,2013-04-06 00:30:00
1:00 AM,50.0,48.2,94,30.21,6.2,Calm,Calm,-,N/A,,Scattered Clouds,0,2013-04-06 01:00:00
1:30 AM,50.0,48.2,94,30.21,6.2,Calm,Calm,-,N/A,,Scattered Clouds,0,2013-04-06 01:30:00
2:00 AM,50.0,48.2,94,30.21,6.2,Calm,Calm,-,N/A,,Scattered Clouds,0,2013-04-06 02:00:00
2:30 AM,50.0,48.2,94,30.21,6.2,Calm,Calm,-,N/A,,Scattered Clouds,0,2013-04-06 02:30:00
3:00 AM,49,47,88,30.22,6,Calm,Calm,,,,Mostly Cloudy,,2013-04-06 03:00:00
3:00 AM,48.2,46.4,93,30.21,6.2,Calm,Calm,-,N/A,,Scattered Clouds,0,2013-04-06 03:00:00
3:30 AM,48.2,46.4,93,30.18,6.2,Calm,Calm,-,N/A,,Scattered Clouds,0,2013-04-06 03:30:00
4:00 AM,48.2,46.4,93,30.18,6.2,Calm,Calm,-,N/A,,Scattered Clouds,0,2013-04-06 04:00:00
4:30 AM,48.2,46.4,93,30.18,5.6,Calm,Calm,-,N/A,,Scattered Clouds,0,2013-04-06 04:30:00
5:00 AM,46.4,44.6,93,30.18,5.6,Calm,Calm,-,N/A,,Scattered Clouds,0,2013-04-06 05:00:00
5:30 AM,44.6,44.6,100,30.18,5.6,Calm,Calm,-,N/A,,Scattered Clouds,0,2013-04-06 05:30:00
6:00 AM,44,44,97,30.22,6,Calm,Calm,,,,Partly Cloudy,,2013-04-06 06:00:00
6:00 AM,44.6,44.6,100,30.18,5.6,Calm,Calm,-,N/A,,Scattered Clouds,0,2013-04-06 06:00:00
6:30 AM,44.6,44.6,100,30.18,-9999.0,Calm,Calm,-,N/A,,Clear,0,2013-04-06 06:30:00
7:00 AM,46.4,44.6,93,30.18,-9999.0,Calm,Calm,-,N/A,,Clear,0,2013-04-06 07:00:00
7:30 AM,48.2,46.4,93,30.18,-9999.0,Calm,Calm,-,N/A,,Clear,0,2013-04-06 07:30:00
8:00 AM,50.0,46.4,87,30.21,-9999.0,Calm,Calm,-,N/A,,Clear,0,2013-04-06 08:00:00
8:30 AM,51.8,46.4,82,30.21,-9999.0,East,5.8,-,N/A,,Clear,80,2013-04-06 08:30:00
9:00 AM,54,46,65,30.22,6,ENE,6.9,,,,,70,2013-04-06 09:00:00
9:00 AM,53.6,44.6,72,30.21,-9999.0,ENE,6.9,-,N/A,,Clear,70,2013-04-06 09:00:00
9:30 AM,55.4,44.6,67,30.21,-9999.0,ENE,8.1,-,N/A,,Clear,70,2013-04-06 09:30:00
10:00 AM,57.2,44.6,63,30.24,-9999.0,NE,5.8,-,N/A,,Clear,50,2013-04-06 10:00:00
10:30 AM,59.0,41.0,51,30.24,6.2,ENE,6.9,-,N/A,,Partly Cloudy,70,2013-04-06 10:30:00
11:00 AM,59.0,42.8,55,30.21,6.2,ENE,6.9,-,N/A,,Partly Cloudy,60,2013-04-06 11:00:00
11:30 AM,60.8,42.8,52,30.21,6.2,East,8.1,-,N/A,,Partly Cloudy,80,2013-04-06 11:30:00
12:00 PM,62,42,36,30.18,6,ENE,9.2,,,,Clear,70,2013-04-06 12:00:00
12:00 PM,62.6,41.0,45,30.18,-9999.0,East,9.2,-,N/A,,Clear,80,2013-04-06 12:00:00
12:30 PM,62.6,41.0,45,30.18,-9999.0,East,8.1,-,N/A,,Clear,80,2013-04-06 12:30:00
1:00 PM,64.4,42.8,45,30.15,-9999.0,East,11.5,-,N/A,,Clear,80,2013-04-06 13:00:00
1:30 PM,64.4,44.6,49,30.15,-9999.0,ENE,11.5,-,N/A,,Clear,60,2013-04-06 13:30:00
2:00 PM,66.2,44.6,46,30.12,-9999.0,ENE,11.5,-,N/A,,Clear,70,2013-04-06 14:00:00
2:30 PM,66.2,44.6,46,30.12,-9999.0,NE,9.2,-,N/A,,Clear,40,2013-04-06 14:30:00
3:00 PM,67,43,31,30.08,6,ENE,10.4,,,,Clear,60,2013-04-06 15:00:00
3:00 PM,66.2,44.6,46,30.12,-9999.0,ENE,11.5,-,N/A,,Clear,60,2013-04-06 15:00:00
3:30 PM,68.0,42.8,40,30.09,-9999.0,ENE,8.1,-,N/A,,Clear,60,2013-04-06 15:30:00
4:00 PM,68.0,42.8,40,30.09,-9999.0,East,8.1,-,N/A,,Clear,80,2013-04-06 16:00:00
4:30 PM,68.0,42.8,40,30.09,-9999.0,ENE,5.8,-,N/A,,Clear,60,2013-04-06 16:30:00
5:00 PM,68.0,42.8,40,30.09,6.2,ENE,8.1,-,N/A,,Partly Cloudy,60,2013-04-06 17:00:00
5:30 PM,68.0,44.6,43,30.09,6.2,North,8.1,-,N/A,,Partly Cloudy,10,2013-04-06 17:30:00
6:00 PM,67,44,31,30.06,6,NE,9.2,,,,Scattered Clouds,40,2013-04-06 18:00:00
6:00 PM,68.0,42.8,40,30.09,6.2,NE,8.1,-,N/A,,Partly Cloudy,40,2013-04-06 18:00:00
6:30 PM,66.2,42.8,43,30.09,6.2,NNE,5.8,-,N/A,,Partly Cloudy,20,2013-04-06 18:30:00
7:00 PM,64.4,42.8,45,30.12,6.2,NNE,6.9,-,N/A,,Unknown,30,2013-04-06 19:00:00
7:30 PM,62.6,42.8,48,30.12,6.2,NE,4.6,-,N/A,,Partly Cloudy,40,2013-04-06 19:30:00
8:00 PM,62.6,42.8,48,30.12,6.2,NE,4.6,-,N/A,,Partly Cloudy,50,2013-04-06 20:00:00
8:30 PM,60.8,44.6,55,30.12,6.2,ENE,6.9,-,N/A,,Partly Cloudy,60,2013-04-06 20:30:00
9:00 PM,60,46,50,30.11,6,NE,9.2,,,,Scattered Clouds,50,2013-04-06 21:00:00
9:00 PM,59.0,44.6,59,30.12,6.2,NE,8.1,-,N/A,,Partly Cloudy,50,2013-04-06 21:00:00
9:30 PM,59.0,48.2,67,30.12,6.2,NNE,9.2,-,N/A,,Partly Cloudy,30,2013-04-06 21:30:00
10:00 PM,57.2,50.0,77,30.12,-9999.0,NNE,10.4,-,N/A,,Clear,30,2013-04-06 22:00:00
10:30 PM,55.4,48.2,77,30.09,-9999.0,NE,9.2,-,N/A,,Clear,40,2013-04-06 22:30:00
11:00 PM,53.6,48.2,82,30.09,-9999.0,NE,8.1,-,N/A,,Clear,40,2013-04-06 23:00:00
11:30 PM,53.6,48.2,82,30.09,-9999.0,NE,6.9,-,N/A,,Clear,50,2013-04-06 23:30:00